Time;durP1;ratioP1;P1;durP2;ratioP2;P2;SDS_P1;SDS_P2;PMS_P1;PMS_P2;Temp;Humidity;BMP_temperature;BMP_pressure;BME280_temperature;BME280_humidity;BME280_pressure;Samples;Min_cycle;Max_cycle;Signal;HPM_P1;HPM_P2
2022/03/16 00:02:49;;;;;;;47.17;15.43;;;;;;;2.23;95.15;101942.00;6039976;28;20034;-70
2022/03/16 00:05:45;;;;;;;54.60;15.50;;;;;;;2.15;95.21;101931.84;6047954;28;20030;-71
2022/03/16 00:08:40;;;;;;;49.17;16.40;;;;;;;2.12;94.96;101945.06;6033391;28;20057;-71
2022/03/16 00:11:35;;;;;;;50.37;15.97;;;;;;;2.17;95.37;101952.75;6039170;28;20481;-70
2022/03/16 00:14:30;;;;;;;48.97;15.87;;;;;;;1.86;95.73;101953.09;6040900;28;20038;-71
2022/03/16 00:17:26;;;;;;;63.77;16.70;;;;;;;1.99;95.63;101956.94;6037439;28;20030;-73
2022/03/16 00:20:21;;;;;;;43.60;14.63;;;;;;;2.31;96.49;101968.72;6047392;28;20418;-69
2022/03/16 00:23:16;;;;;;;42.47;14.77;;;;;;;2.25;95.96;101969.84;6049769;28;20084;-71
2022/03/16 00:26:12;;;;;;;51.53;17.20;;;;;;;2.05;95.29;101974.16;6041296;28;20061;-70
2022/03/16 00:29:07;;;;;;;37.67;14.13;;;;;;;2.16;95.43;101977.19;6039190;28;20034;-70
2022/03/16 00:32:03;;;;;;;46.10;15.43;;;;;;;2.16;96.11;101988.50;6032608;28;20497;-71
2022/03/16 00:34:58;;;;;;;38.00;13.52;;;;;;;2.25;95.16;101980.31;6036057;28;20276;-69
2022/03/16 00:37:53;;;;;;;39.03;13.43;;;;;;;2.31;95.39;101976.59;6034098;28;20036;-70
2022/03/16 00:40:49;;;;;;;39.40;13.50;;;;;;;2.34;95.10;101979.91;6042000;28;20058;-70
2022/03/16 00:43:44;;;;;;;35.55;13.85;;;;;;;2.21;94.92;101990.94;6043465;28;20034;-73
2022/03/16 00:46:41;;;;;;;38.83;13.07;;;;;;;2.02;94.74;101996.03;6053909;28;20064;-73
2022/03/16 00:49:36;;;;;;;37.20;13.05;;;;;;;1.68;94.99;102003.50;6052796;28;20026;-71
2022/03/16 00:52:31;;;;;;;36.50;12.13;;;;;;;1.66;95.24;102000.06;6048443;28;20088;-70
2022/03/16 00:55:27;;;;;;;34.87;13.00;;;;;;;1.65;94.42;102001.00;6037334;28;20164;-73
2022/03/16 00:58:24;;;;;;;41.70;13.77;;;;;;;1.52;94.92;101999.75;6041696;28;20026;-70
2022/03/16 01:01:19;;;;;;;42.03;14.52;;;;;;;1.62;95.31;102003.72;6043742;28;20030;-72
2022/03/16 01:04:14;;;;;;;40.47;13.93;;;;;;;1.89;94.78;101996.59;6043874;28;20053;-70
2022/03/16 01:07:10;;;;;;;43.60;13.50;;;;;;;1.96;95.44;101993.66;6035862;28;20036;-72
2022/03/16 01:10:05;;;;;;;44.30;14.37;;;;;;;2.03;94.90;101999.50;6049626;28;20319;-70
2022/03/16 01:13:01;;;;;;;40.25;14.98;;;;;;;1.63;94.53;102002.81;6034231;28;20030;-72
2022/03/16 01:15:56;;;;;;;42.20;14.03;;;;;;;1.54;94.52;102008.38;6043342;28;20522;-70
2022/03/16 01:18:51;;;;;;;37.33;13.50;;;;;;;1.73;95.02;102009.41;6050203;28;20017;-72
2022/03/16 01:21:47;;;;;;;48.33;14.30;;;;;;;2.02;94.37;101993.44;6048494;28;20041;-73
2022/03/16 01:24:42;;;;;;;40.93;14.23;;;;;;;1.82;94.95;102002.97;6047664;28;20037;-70
2022/03/16 01:27:38;;;;;;;43.77;14.53;;;;;;;1.48;94.75;102000.75;6027246;28;20109;-71
2022/03/16 01:30:33;;;;;;;44.70;14.68;;;;;;;1.42;94.87;101998.38;6035762;28;20041;-72
2022/03/16 01:33:29;;;;;;;36.93;13.87;;;;;;;1.67;94.97;102007.00;6035396;28;20034;-71
2022/03/16 01:36:25;;;;;;;37.95;12.43;;;;;;;1.69;95.37;102002.56;6034412;28;20026;-72
2022/03/16 01:39:20;;;;;;;40.78;12.98;;;;;;;1.75;94.56;102004.94;6032886;28;20539;-71
2022/03/16 01:42:15;;;;;;;38.65;12.27;;;;;;;1.88;94.66;102003.56;6048901;28;20022;-73
2022/03/16 01:45:11;;;;;;;38.57;12.80;;;;;;;1.68;94.58;102003.50;6048743;28;20065;-72
2022/03/16 01:48:06;;;;;;;34.97;14.15;;;;;;;1.76;93.72;102004.06;6031404;28;20121;-71
2022/03/16 01:51:03;;;;;;;33.07;12.17;;;;;;;1.76;94.37;102001.44;6046334;28;20084;-72
2022/03/16 01:53:58;;;;;;;35.15;11.70;;;;;;;1.84;93.80;102014.22;6044657;28;20104;-70
2022/03/16 01:56:53;;;;;;;42.72;13.15;;;;;;;1.78;93.63;102017.91;6048551;28;20065;-70
2022/03/16 01:59:49;;;;;;;38.80;11.93;;;;;;;1.79;93.99;102019.63;6047644;28;20030;-71
2022/03/16 02:02:46;;;;;;;34.47;11.85;;;;;;;1.70;94.15;102022.59;6047096;28;20026;-72
2022/03/16 02:05:41;;;;;;;37.70;12.30;;;;;;;1.90;93.87;102017.47;6049085;28;20073;-73
2022/03/16 02:08:36;;;;;;;35.33;11.37;;;;;;;1.94;93.33;102008.56;6036630;28;20030;-72
2022/03/16 02:11:31;;;;;;;42.93;13.80;;;;;;;1.95;93.18;102012.91;6054240;28;20133;-72
2022/03/16 02:14:28;;;;;;;43.90;12.53;;;;;;;1.93;92.63;102017.31;6051548;28;20033;-71
2022/03/16 02:17:24;;;;;;;44.65;13.60;;;;;;;1.98;93.08;102011.94;6048550;28;20273;-71
2022/03/16 02:20:20;;;;;;;39.58;14.35;;;;;;;1.78;93.55;102012.69;6045251;28;20045;-72
2022/03/16 02:23:15;;;;;;;42.07;13.47;;;;;;;1.72;93.48;102020.75;6035442;28;20046;-71
2022/03/16 02:26:12;;;;;;;74.03;17.20;;;;;;;1.97;93.54;102016.31;6045910;28;20339;-71
2022/03/16 02:29:07;;;;;;;64.30;17.33;;;;;;;1.86;93.43;102008.00;6049083;28;20068;-70
2022/03/16 02:32:03;;;;;;;50.27;16.17;;;;;;;1.77;94.72;102005.75;6043884;28;20034;-72
2022/03/16 02:34:58;;;;;;;50.10;16.55;;;;;;;1.97;95.36;102013.69;6045805;28;20099;-70
2022/03/16 02:37:54;;;;;;;55.43;17.67;;;;;;;2.06;95.82;102013.34;6043856;28;20034;-71
2022/03/16 02:40:49;;;;;;;46.03;15.87;;;;;;;1.91;95.45;102013.06;6038511;28;20041;-69
2022/03/16 02:43:45;;;;;;;52.25;18.48;;;;;;;1.58;95.53;102023.03;6049108;28;20026;-72
2022/03/16 02:46:40;;;;;;;60.40;16.63;;;;;;;1.54;95.54;102021.44;6042713;28;20067;-70
2022/03/16 02:49:36;;;;;;;49.97;15.53;;;;;;;1.68;95.53;102027.03;6048792;28;20029;-70
2022/03/16 02:52:31;;;;;;;53.55;16.70;;;;;;;1.74;95.96;102034.59;6047736;28;20269;-69
2022/03/16 02:55:26;;;;;;;62.20;17.43;;;;;;;1.40;96.11;102037.63;6043119;28;20037;-72
2022/03/16 02:58:22;;;;;;;47.23;14.97;;;;;;;1.35;96.48;102046.53;6055305;28;20042;-72
2022/03/16 03:01:17;;;;;;;46.00;15.27;;;;;;;1.17;95.90;102046.28;6041863;28;20033;-71
2022/03/16 03:04:12;;;;;;;47.33;14.73;;;;;;;1.08;95.78;102059.66;6039955;28;20273;-69
2022/03/16 03:07:09;;;;;;;42.47;14.23;;;;;;;1.48;96.14;102045.19;6051087;28;20041;-73
2022/03/16 03:10:04;;;;;;;62.88;16.35;;;;;;;1.42;96.59;102053.25;6042213;28;20033;-71
2022/03/16 03:13:00;;;;;;;43.53;14.10;;;;;;;1.55;96.72;102062.38;6053035;28;20026;-71
2022/03/16 03:15:55;;;;;;;48.37;14.87;;;;;;;1.44;96.83;102052.28;6045138;28;20068;-70
2022/03/16 03:18:50;;;;;;;43.33;13.77;;;;;;;1.58;97.20;102057.00;6044680;28;20616;-71
2022/03/16 03:21:46;;;;;;;54.23;18.03;;;;;;;1.69;96.99;102065.31;6046910;28;20029;-68
2022/03/16 03:24:44;;;;;;;48.55;15.00;;;;;;;1.79;96.81;102053.63;6047518;28;20107;-70
2022/03/16 03:27:39;;;;;;;41.83;15.32;;;;;;;1.77;96.56;102060.66;6052184;28;20034;-71
2022/03/16 03:30:35;;;;;;;58.72;15.32;;;;;;;1.66;97.06;102060.19;6041419;28;20153;-73
2022/03/16 03:33:30;;;;;;;59.77;14.87;;;;;;;1.62;96.84;102059.47;6045945;28;20131;-72
2022/03/16 03:36:26;;;;;;;48.45;14.25;;;;;;;1.56;96.97;102059.69;6036777;28;20031;-71
2022/03/16 03:39:21;;;;;;;47.63;14.90;;;;;;;1.69;96.85;102065.31;6048971;28;20119;-70
2022/03/16 03:42:16;;;;;;;75.73;17.03;;;;;;;1.19;96.42;102057.53;6044852;28;20032;-73
2022/03/16 03:45:12;;;;;;;57.90;14.73;;;;;;;1.10;96.85;102055.25;6052539;28;20273;-72
2022/03/16 03:48:07;;;;;;;44.73;14.80;;;;;;;1.20;97.02;102060.97;6068421;28;20037;-72
2022/03/16 03:51:03;;;;;;;41.83;13.45;;;;;;;1.15;96.61;102061.16;6051392;28;20030;-70
2022/03/16 03:53:58;;;;;;;40.97;14.13;;;;;;;1.03;97.45;102058.94;6047464;28;20121;-71
2022/03/16 03:56:53;;;;;;;38.00;13.93;;;;;;;0.84;97.20;102051.81;6050628;28;20026;-71
2022/03/16 03:59:49;;;;;;;44.90;13.68;;;;;;;0.74;97.67;102046.03;6037456;28;20034;-71
2022/03/16 04:02:48;;;;;;;49.57;14.77;;;;;;;0.56;97.29;102042.28;6045356;28;20477;-70
2022/03/16 04:05:45;;;;;;;51.00;16.20;;;;;;;0.40;97.96;102050.66;6046305;28;20827;-71
2022/03/16 04:08:42;;;;;;;88.43;21.08;;;;;;;0.15;97.72;102054.91;6034848;28;20029;-70
2022/03/16 04:11:37;;;;;;;60.97;17.63;;;;;;;0.11;98.08;102053.31;6050384;28;20040;-70
2022/03/16 04:14:33;;;;;;;66.20;18.20;;;;;;;0.05;97.97;102043.06;6050453;28;20026;-69
2022/03/16 04:17:28;;;;;;;97.27;22.40;;;;;;;0.00;98.12;102041.44;6051135;28;20030;-73
2022/03/16 04:20:23;;;;;;;52.13;17.73;;;;;;;0.12;98.07;102044.56;6046436;28;20026;-70
2022/03/16 04:23:19;;;;;;;96.70;23.47;;;;;;;0.06;98.87;102045.63;6041967;28;20072;-71
2022/03/16 04:26:14;;;;;;;46.85;17.67;;;;;;;0.02;98.80;102048.38;6046647;28;20623;-71
2022/03/16 04:29:09;;;;;;;90.00;20.83;;;;;;;-0.02;98.86;102050.19;6046154;28;20457;-72
2022/03/16 04:32:05;;;;;;;63.80;19.60;;;;;;;0.11;98.99;102042.88;6050610;28;20034;-72
2022/03/16 04:35:01;;;;;;;53.33;18.00;;;;;;;-0.04;98.71;102034.63;6046909;28;20034;-71
2022/03/16 04:37:56;;;;;;;46.97;17.33;;;;;;;-0.02;99.26;102032.81;6049576;28;20408;-71
2022/03/16 04:40:51;;;;;;;63.70;18.27;;;;;;;-0.12;98.61;102028.78;6042090;28;20064;-72
2022/03/16 04:43:47;;;;;;;65.00;18.98;;;;;;;-0.09;99.18;102035.66;6050145;28;20277;-71
2022/03/16 04:46:42;;;;;;;42.93;16.27;;;;;;;-0.03;99.24;102031.09;6050389;28;20481;-70
2022/03/16 04:49:37;;;;;;;44.07;15.27;;;;;;;-0.01;98.98;102034.53;6050393;28;20774;-71
2022/03/16 04:52:41;;;;;;;48.85;17.60;;;;;;;-0.06;99.29;102041.66;6058986;28;20033;-71
2022/03/16 04:55:37;;;;;;;58.47;15.00;;;;;;;0.04;99.21;102037.00;6050553;28;20395;-71
2022/03/16 04:58:32;;;;;;;42.03;15.97;;;;;;;0.08;99.20;102037.75;6049616;28;20067;-73
2022/03/16 05:01:28;;;;;;;47.17;15.73;;;;;;;0.07;99.03;102036.91;6049959;28;20030;-71
2022/03/16 05:04:23;;;;;;;42.70;15.93;;;;;;;-0.02;99.35;102038.03;6034575;28;20037;-71
2022/03/16 05:07:18;;;;;;;45.90;15.97;;;;;;;0.08;99.71;102038.63;6029051;28;20049;-71
2022/03/16 05:10:14;;;;;;;39.13;15.67;;;;;;;-0.01;99.54;102039.75;6049891;28;20061;-70
2022/03/16 05:13:09;;;;;;;44.33;15.38;;;;;;;-0.01;99.72;102031.06;6065669;28;20025;-71
2022/03/16 05:16:06;;;;;;;38.23;15.13;;;;;;;-0.03;99.81;102041.53;6053630;28;20485;-71
2022/03/16 05:19:01;;;;;;;38.15;13.13;;;;;;;-0.05;99.52;102040.72;6049681;28;20058;-72
2022/03/16 05:21:57;;;;;;;43.40;17.38;;;;;;;-0.04;99.71;102029.41;6047306;28;20066;-73
2022/03/16 05:24:52;;;;;;;36.97;13.18;;;;;;;0.02;99.87;102043.16;6047421;28;20108;-70
2022/03/16 05:27:48;;;;;;;37.20;13.63;;;;;;;0.09;99.91;102049.88;6034879;28;20038;-73
2022/03/16 05:30:44;;;;;;;53.97;17.13;;;;;;;0.08;99.72;102056.00;6046112;28;20096;-70
2022/03/16 05:33:39;;;;;;;43.15;15.65;;;;;;;0.27;99.62;102057.16;6043439;28;20120;-71
2022/03/16 05:36:34;;;;;;;39.88;14.25;;;;;;;0.24;99.76;102070.28;6035493;28;20045;-70
2022/03/16 05:39:30;;;;;;;44.95;15.80;;;;;;;-0.01;99.62;102073.63;6047357;28;20038;-70
2022/03/16 05:42:25;;;;;;;53.53;16.03;;;;;;;-0.26;99.70;102084.81;6051082;28;20021;-72
2022/03/16 05:45:21;;;;;;;44.87;15.13;;;;;;;-0.38;99.69;102079.97;6047208;28;20347;-73
2022/03/16 05:48:16;;;;;;;51.30;16.45;;;;;;;-0.49;100.00;102088.03;6049431;28;20028;-73
2022/03/16 05:51:12;;;;;;;53.87;13.17;;;;;;;-0.43;99.36;102082.69;6060903;28;20037;-70
2022/03/16 05:54:07;;;;;;;50.43;16.37;;;;;;;-0.36;100.00;102089.44;6049414;28;20034;-73
2022/03/16 05:57:02;;;;;;;67.43;17.80;;;;;;;-0.19;100.00;102097.63;6047789;28;20022;-71
2022/03/16 05:59:58;;;;;;;64.05;18.08;;;;;;;-0.17;99.86;102095.84;6027490;28;20022;-73
2022/03/16 06:02:53;;;;;;;38.73;15.47;;;;;;;-0.01;99.97;102104.94;6033152;28;20029;-71
2022/03/16 06:05:49;;;;;;;74.30;19.02;;;;;;;-0.04;99.83;102110.22;6048381;28;20030;-70
2022/03/16 06:08:44;;;;;;;65.10;18.27;;;;;;;-0.07;100.00;102105.09;6047463;28;20022;-72
2022/03/16 06:11:39;;;;;;;44.33;16.50;;;;;;;0.07;99.71;102114.25;6048025;28;20037;-71
2022/03/16 06:14:35;;;;;;;36.85;13.57;;;;;;;0.45;99.98;102103.53;6039761;28;20359;-70
2022/03/16 06:17:30;;;;;;;34.17;13.43;;;;;;;0.80;100.00;102107.63;6038748;28;20045;-72
2022/03/16 06:20:28;;;;;;;40.63;13.90;;;;;;;0.94;100.00;102108.03;6032724;28;20107;-70
2022/03/16 06:23:23;;;;;;;33.30;13.73;;;;;;;0.99;99.93;102112.19;6041496;28;20025;-71
2022/03/16 06:26:18;;;;;;;39.10;14.43;;;;;;;1.09;100.00;102121.44;6036496;28;20119;-72
2022/03/16 06:29:14;;;;;;;35.77;13.27;;;;;;;1.03;100.00;102118.19;6049564;28;20065;-72
2022/03/16 06:32:09;;;;;;;39.43;12.83;;;;;;;0.95;100.00;102122.81;6047197;28;20088;-71
2022/03/16 06:35:05;;;;;;;38.23;13.97;;;;;;;0.91;100.00;102122.03;6034245;28;20461;-74
2022/03/16 06:38:00;;;;;;;39.50;12.27;;;;;;;0.87;99.84;102125.63;6050864;28;20057;-73
2022/03/16 06:40:56;;;;;;;29.33;12.13;;;;;;;1.10;100.00;102138.81;6051463;28;20576;-69
2022/03/16 06:43:51;;;;;;;26.30;11.43;;;;;;;1.28;99.93;102141.72;6045606;28;20087;-70
2022/03/16 06:46:48;;;;;;;28.47;11.87;;;;;;;1.51;99.71;102154.84;6053059;28;20057;-73
2022/03/16 06:49:45;;;;;;;48.83;12.25;;;;;;;1.48;100.00;102161.03;6056935;28;20272;-71
2022/03/16 06:52:41;;;;;;;27.20;11.38;;;;;;;1.33;99.93;102148.50;6045788;28;20060;-71
2022/03/16 06:55:36;;;;;;;22.92;10.20;;;;;;;1.31;99.89;102152.91;6048045;28;20029;-72
2022/03/16 06:58:32;;;;;;;25.77;10.17;;;;;;;1.28;99.76;102158.22;6051883;28;20030;-72
2022/03/16 07:01:27;;;;;;;29.77;11.33;;;;;;;1.32;100.00;102156.38;6051837;28;20257;-71
2022/03/16 07:04:22;;;;;;;26.23;10.47;;;;;;;1.16;99.40;102159.50;6061238;28;20395;-74
2022/03/16 07:07:17;;;;;;;26.97;11.10;;;;;;;1.19;99.59;102158.56;6052347;28;20025;-72
2022/03/16 07:10:13;;;;;;;30.33;11.23;;;;;;;1.27;99.69;102171.34;6047617;28;20026;-71
2022/03/16 07:13:10;;;;;;;30.60;9.97;;;;;;;1.35;99.26;102177.19;6050416;28;20485;-70
2022/03/16 07:16:06;;;;;;;30.33;10.80;;;;;;;1.65;99.94;102183.97;6039473;28;20017;-73
2022/03/16 07:19:01;;;;;;;22.50;9.80;;;;;;;1.64;99.72;102174.41;6053054;28;20389;-72
2022/03/16 07:21:59;;;;;;;43.55;10.85;;;;;;;1.53;99.73;102168.72;6048236;28;20085;-71
2022/03/16 07:24:54;;;;;;;36.35;9.23;;;;;;;1.73;99.50;102188.03;6029246;28;20468;-72
2022/03/16 07:27:49;;;;;;;25.83;10.17;;;;;;;1.74;99.93;102181.03;6037852;28;20052;-73
2022/03/16 07:30:45;;;;;;;25.27;10.85;;;;;;;2.07;99.03;102187.69;6051939;28;20030;-71
2022/03/16 07:33:40;;;;;;;34.20;11.20;;;;;;;2.80;99.85;102184.91;6033298;28;20038;-70
2022/03/16 07:36:36;;;;;;;22.40;10.23;;;;;;;3.12;99.31;102181.84;6028937;28;20034;-70
2022/03/16 07:39:31;;;;;;;25.97;10.37;;;;;;;3.03;99.22;102192.69;6028994;28;20030;-72
2022/03/16 07:42:26;;;;;;;25.23;10.67;;;;;;;3.41;98.70;102188.50;6040685;28;20386;-74
2022/03/16 07:45:23;;;;;;;24.43;9.77;;;;;;;3.27;98.50;102182.97;6027777;28;20269;-73
2022/03/16 07:48:18;;;;;;;22.98;9.60;;;;;;;3.80;98.12;102185.97;6030887;28;20031;-71
2022/03/16 07:51:13;;;;;;;23.33;9.67;;;;;;;3.82;97.75;102189.38;6046396;28;20034;-73
2022/03/16 07:54:08;;;;;;;26.73;10.83;;;;;;;3.78;96.68;102182.56;6030720;28;20454;-72
2022/03/16 07:57:04;;;;;;;26.93;11.27;;;;;;;3.64;95.47;102195.41;6051875;28;20057;-75
2022/03/16 07:59:59;;;;;;;27.63;10.50;;;;;;;3.92;94.25;102191.50;6047138;28;20029;-74
2022/03/16 08:02:55;;;;;;;22.43;10.47;;;;;;;4.13;93.74;102190.56;6032172;28;20036;-75
2022/03/16 08:05:50;;;;;;;28.33;11.17;;;;;;;4.62;92.62;102188.34;6028225;28;20373;-73
2022/03/16 08:08:46;;;;;;;29.48;12.70;;;;;;;4.97;92.03;102189.28;6028623;28;20316;-71
2022/03/16 08:11:41;;;;;;;25.50;11.68;;;;;;;5.20;90.54;102192.50;6050184;28;20022;-74
2022/03/16 08:14:36;;;;;;;26.63;10.67;;;;;;;5.22;88.89;102181.88;6059735;28;20501;-73
2022/03/16 08:17:32;;;;;;;28.13;13.03;;;;;;;5.38;87.81;102190.75;6031917;28;20261;-75
2022/03/16 08:20:27;;;;;;;30.48;12.82;;;;;;;5.65;85.81;102201.66;6037466;28;20064;-73
2022/03/16 08:23:23;;;;;;;27.60;11.20;;;;;;;5.72;86.67;102201.25;6051917;28;20454;-73
2022/03/16 08:26:18;;;;;;;27.73;12.90;;;;;;;6.19;86.09;102201.44;6050960;28;20034;-71
2022/03/16 08:29:13;;;;;;;30.03;12.17;;;;;;;5.90;84.13;102207.38;6041864;28;20485;-75
2022/03/16 08:32:08;;;;;;;27.50;13.03;;;;;;;5.69;85.27;102209.31;6044201;28;20038;-72
2022/03/16 08:35:06;;;;;;;24.23;11.47;;;;;;;5.98;84.71;102208.69;6051164;28;20029;-74
2022/03/16 08:38:01;;;;;;;27.90;11.45;;;;;;;6.23;84.56;102210.03;6051388;28;20633;-74
2022/03/16 08:40:56;;;;;;;30.83;12.17;;;;;;;6.34;83.91;102200.63;6049713;28;20038;-70
2022/03/16 08:43:52;;;;;;;24.07;11.23;;;;;;;6.67;83.67;102197.94;6028258;28;20038;-74
2022/03/16 08:46:47;;;;;;;31.27;12.40;;;;;;;5.92;82.02;102203.72;6048963;28;20476;-73
2022/03/16 08:49:44;;;;;;;29.40;13.23;;;;;;;6.06;83.71;102204.81;6050587;28;20408;-71
2022/03/16 08:52:39;;;;;;;29.90;12.85;;;;;;;6.45;84.35;102213.22;6034393;28;20092;-75
2022/03/16 08:55:35;;;;;;;28.30;11.90;;;;;;;6.64;82.64;102203.38;6042905;28;20462;-71
2022/03/16 08:58:31;;;;;;;31.35;12.82;;;;;;;7.01;81.24;102208.28;6045066;28;20560;-73
2022/03/16 09:01:26;;;;;;;29.27;12.20;;;;;;;7.10;80.80;102202.50;6044678;28;20117;-75
2022/03/16 09:04:22;;;;;;;31.85;13.40;;;;;;;7.24;80.41;102206.16;6043476;28;21511;-71
2022/03/16 09:07:17;;;;;;;31.43;13.70;;;;;;;7.53;80.52;102210.56;6049761;28;20372;-72
2022/03/16 09:10:12;;;;;;;27.33;12.30;;;;;;;8.14;78.74;102208.63;6050660;28;20030;-71
2022/03/16 09:13:08;;;;;;;38.63;17.35;;;;;;;7.86;79.25;102219.16;6048357;28;20033;-72
2022/03/16 09:16:03;;;;;;;32.83;15.20;;;;;;;7.98;79.26;102213.16;6045661;28;20044;-70
2022/03/16 09:18:58;;;;;;;32.17;14.73;;;;;;;8.14;79.52;102224.47;6050154;28;20029;-72
2022/03/16 09:21:54;;;;;;;29.27;12.43;;;;;;;8.45;77.58;102220.84;6047812;28;20052;-71
2022/03/16 09:24:49;;;;;;;34.67;13.53;;;;;;;8.45;78.06;102220.84;6050071;28;20026;-72
2022/03/16 09:27:44;;;;;;;31.07;13.63;;;;;;;9.01;75.95;102216.38;6049929;28;20400;-73
2022/03/16 09:30:40;;;;;;;31.17;13.03;;;;;;;9.28;75.01;102220.75;6048340;28;20557;-70
2022/03/16 09:33:36;;;;;;;34.05;13.57;;;;;;;9.85;72.56;102217.78;6036001;28;20026;-72
2022/03/16 09:36:42;;;;;;;33.42;14.77;;;;;;;10.04;72.25;102220.88;6030024;28;20029;-71
2022/03/16 09:39:37;;;;;;;30.77;13.43;;;;;;;10.52;70.43;102220.13;6030182;28;20028;-71
2022/03/16 09:42:33;;;;;;;43.10;18.10;;;;;;;10.38;70.59;102224.75;6048707;28;20030;-72
2022/03/16 09:45:29;;;;;;;28.48;13.02;;;;;;;10.59;69.75;102229.38;6049647;28;20466;-71
2022/03/16 09:48:25;;;;;;;28.65;13.20;;;;;;;9.99;69.76;102242.41;6052836;28;20369;-71
2022/03/16 09:51:22;;;;;;;25.92;12.13;;;;;;;9.71;70.61;102239.06;6051603;28;20033;-72
2022/03/16 09:54:17;;;;;;;28.50;12.63;;;;;;;9.86;71.63;102243.34;6049655;28;20049;-72
2022/03/16 09:57:12;;;;;;;26.90;11.13;;;;;;;9.78;71.38;102243.88;6049489;28;20060;-71
2022/03/16 10:00:12;;;;;;;25.97;12.53;;;;;;;10.44;72.18;102241.06;6044716;28;20268;-72
2022/03/16 10:03:07;;;;;;;30.95;13.07;;;;;;;10.87;69.87;102249.47;6036099;28;20030;-72
2022/03/16 10:06:06;;;;;;;28.17;11.77;;;;;;;10.94;68.62;102233.94;6045232;28;20030;-71
2022/03/16 10:16:09;;;;;;;22.35;9.43;;;;;;;11.08;66.66;102232.00;6042515;28;20038;-74
2022/03/16 10:19:04;;;;;;;24.50;11.20;;;;;;;11.12;67.61;102230.81;6030632;28;20405;-74
2022/03/16 10:22:01;;;;;;;26.33;11.77;;;;;;;11.17;67.79;102233.13;6042829;28;20040;-72
2022/03/16 10:25:05;;;;;;;29.98;12.25;;;;;;;10.55;71.78;102230.53;6053078;28;20026;-72
2022/03/16 10:28:10;;;;;;;28.85;11.98;;;;;;;10.83;71.12;102231.22;6030661;28;20122;-73
2022/03/16 10:31:07;;;;;;;26.60;11.55;;;;;;;11.09;71.11;102232.81;6046155;28;20547;-71
2022/03/16 10:34:06;;;;;;;26.35;12.32;;;;;;;10.67;71.21;102226.16;6054548;28;20036;-70
2022/03/16 10:37:17;;;;;;;25.13;12.07;;;;;;;10.34;71.93;102224.09;6052674;28;20108;-71
2022/03/16 10:40:20;;;;;;;27.13;11.35;;;;;;;10.91;72.40;102221.75;6049015;28;20120;-73
2022/03/16 10:46:38;;;;;;;28.40;12.88;;;;;;;10.85;70.51;102221.34;6061579;28;20030;-73
2022/03/16 10:49:34;;;;;;;27.92;11.50;;;;;;;11.21;71.47;102223.97;6053522;28;20026;-72
2022/03/16 10:52:32;;;;;;;27.38;11.70;;;;;;;11.52;69.08;102215.44;6052626;28;20038;-72
2022/03/16 10:55:27;;;;;;;23.60;10.77;;;;;;;11.83;68.60;102203.34;6068626;28;20098;-73
2022/03/16 10:58:26;;;;;;;24.90;10.70;;;;;;;11.73;66.47;102199.69;6053198;28;20405;-71
2022/03/16 11:01:22;;;;;;;20.52;10.68;;;;;;;11.99;66.56;102208.31;6057982;28;20286;-73
2022/03/16 11:04:22;;;;;;;24.52;10.80;;;;;;;12.00;66.65;102204.69;6057388;28;20015;-71
2022/03/16 11:07:20;;;;;;;25.17;11.35;;;;;;;11.93;67.72;102207.81;6053186;28;20022;-71
2022/03/16 11:10:16;;;;;;;20.92;10.48;;;;;;;12.03;67.09;102204.47;6046890;28;20413;-74
2022/03/16 11:13:32;;;;;;;25.83;12.43;;;;;;;11.99;66.51;102208.31;6052731;28;20072;-73
2022/03/16 11:16:29;;;;;;;24.95;11.88;;;;;;;11.63;66.65;102196.84;6048730;28;20021;-73
2022/03/16 11:19:24;;;;;;;25.80;10.07;;;;;;;11.74;67.53;102198.75;6049405;28;20038;-71
2022/03/16 11:22:28;;;;;;;24.30;10.35;;;;;;;12.30;66.17;102183.69;6052007;28;20476;-72
2022/03/16 11:25:24;;;;;;;25.77;11.55;;;;;;;12.67;64.63;102177.13;6052432;28;20025;-76
2022/03/16 11:28:31;;;;;;;20.53;9.43;;;;;;;12.61;61.57;102180.28;6067958;28;20445;-71
2022/03/16 11:31:30;;;;;;;19.05;7.97;;;;;;;11.90;62.62;102184.13;6067488;28;20790;-71
2022/03/16 11:34:28;;;;;;;19.30;8.55;;;;;;;11.47;64.29;102174.25;6052167;28;20060;-72
2022/03/16 11:37:47;;;;;;;21.38;9.40;;;;;;;11.61;65.17;102181.97;6051631;28;20030;-72
2022/03/16 11:40:50;;;;;;;20.20;9.32;;;;;;;11.80;64.70;102172.53;6056216;28;20060;-72
2022/03/16 11:43:45;;;;;;;18.00;7.72;;;;;;;12.17;63.21;102153.72;6053477;28;20026;-72
2022/03/16 11:46:41;;;;;;;21.40;9.47;;;;;;;12.14;63.60;102153.97;6051338;28;20080;-72
2022/03/16 11:49:45;;;;;;;23.70;9.10;;;;;;;12.12;63.75;102166.53;6052123;28;20469;-74
2022/03/16 11:53:04;;;;;;;18.67;8.50;;;;;;;12.56;61.57;102155.84;6051091;28;20493;-72
2022/03/16 11:56:21;;;;;;;21.08;7.68;;;;;;;12.31;63.02;102156.16;6051837;28;20037;-72
2022/03/16 11:59:16;;;;;;;17.85;8.65;;;;;;;12.82;61.64;102137.78;6054646;28;20036;-71
2022/03/16 12:02:21;;;;;;;16.67;7.27;;;;;;;12.48;60.70;102144.97;6056319;28;20030;-74
2022/03/16 12:05:20;;;;;;;15.32;6.78;;;;;;;12.32;60.34;102145.38;6051480;28;20030;-74
2022/03/16 12:08:16;;;;;;;15.55;6.88;;;;;;;12.34;60.86;102137.25;6041283;28;20420;-72
2022/03/16 12:14:29;;;;;;;14.98;6.93;;;;;;;12.21;60.30;102133.88;6049488;28;20041;-73
2022/03/16 12:17:24;;;;;;;15.10;6.82;;;;;;;12.29;61.17;102120.81;6050271;28;20061;-73
2022/03/16 12:20:23;;;;;;;17.42;8.02;;;;;;;12.07;61.70;102110.19;6049671;28;20095;-72
2022/03/16 12:23:42;;;;;;;19.20;8.50;;;;;;;12.32;61.99;102110.78;6051547;28;20038;-75
2022/03/16 12:28:55;;;;;;;17.40;8.25;;;;;;;12.48;61.01;102110.38;6051195;28;20064;-75
2022/03/16 12:29:57;;;;;;;19.98;10.45;;;;;;;12.62;61.54;102107.47;6063693;28;20037;-72
2022/03/16 12:32:55;;;;;;;19.27;9.20;;;;;;;12.98;60.43;102101.78;6054203;28;20084;-76
2022/03/16 12:35:51;;;;;;;16.95;7.50;;;;;;;13.05;58.74;102086.13;6051007;28;20036;-72
2022/03/16 12:38:48;;;;;;;19.60;8.63;;;;;;;12.73;58.50;102075.50;6051059;28;20030;-74
2022/03/16 12:45:09;;;;;;;16.77;7.07;;;;;;;13.22;55.78;102084.75;6052659;28;20046;-74
2022/03/16 12:48:12;;;;;;;16.90;10.43;;;;;;;13.05;54.55;102083.47;6051231;28;20109;-73
2022/03/16 12:51:07;;;;;;;15.60;8.35;;;;;;;13.08;57.00;102089.41;6064774;28;20037;-75
2022/03/16 12:54:07;;;;;;;15.40;7.22;;;;;;;13.44;57.16;102081.94;6050713;28;20381;-75
2022/03/16 12:57:09;;;;;;;18.40;7.97;;;;;;;13.36;57.59;102081.75;6050335;28;20119;-76
2022/03/16 13:00:12;;;;;;;15.45;5.57;;;;;;;13.54;53.08;102080.19;6050238;28;20469;-74
2022/03/16 13:03:17;;;;;;;15.35;5.20;;;;;;;13.37;52.28;102089.59;6050858;28;20116;-73
2022/03/16 13:06:20;;;;;;;14.07;7.18;;;;;;;13.43;51.91;102091.75;6050254;28;20033;-72
2022/03/16 13:09:15;;;;;;;12.85;5.80;;;;;;;13.52;51.00;102087.47;6050527;28;20495;-75
2022/03/16 13:12:12;;;;;;;11.95;4.90;;;;;;;13.67;49.66;102091.47;6049667;28;20026;-75
2022/03/16 13:15:08;;;;;;;14.80;5.22;;;;;;;13.69;49.00;102081.53;6050441;28;20025;-74
2022/03/16 13:18:03;;;;;;;14.63;4.45;;;;;;;13.71;48.84;102071.59;6038148;28;20058;-73
2022/03/16 13:20:59;;;;;;;18.97;4.93;;;;;;;13.72;49.33;102073.28;6049735;28;20373;-76
2022/03/16 13:24:10;;;;;;;12.57;4.75;;;;;;;13.75;49.27;102073.03;6052413;28;20155;-75
2022/03/16 13:27:19;;;;;;;14.18;7.00;;;;;;;13.49;49.74;102066.41;6050036;28;20030;-76
2022/03/16 13:30:21;;;;;;;15.55;6.15;;;;;;;13.46;50.46;102066.66;6051446;28;21415;-75
2022/03/16 13:33:16;;;;;;;13.70;5.32;;;;;;;13.43;49.33;102058.94;6057302;28;20074;-76
2022/03/16 13:36:12;;;;;;;13.70;6.10;;;;;;;13.28;50.17;102062.91;6048150;28;20460;-73
2022/03/16 13:39:16;;;;;;;11.68;4.70;;;;;;;13.40;50.11;102062.72;6047047;28;20033;-71
2022/03/16 13:42:15;;;;;;;13.10;5.15;;;;;;;13.32;50.10;102059.84;6048981;28;20477;-74
2022/03/16 13:45:16;;;;;;;12.95;4.75;;;;;;;13.24;50.26;102059.66;6048694;28;20038;-73
2022/03/16 13:48:13;;;;;;;11.30;5.10;;;;;;;13.17;51.42;102049.66;6054261;28;20026;-74